createdAt,value
2018-07-27T00:03:53.401Z,71
2018-07-27T00:09:29.031Z,71
2018-07-27T00:14:55.054Z,71
2018-07-27T00:20:24.636Z,71
2018-07-27T00:25:55.456Z,71
2018-07-27T00:25:56.338Z,71
2018-07-27T00:31:26.590Z,71
2018-07-27T00:36:56.248Z,72
2018-07-27T00:42:32.321Z,72
2018-07-27T00:47:56.834Z,72
2018-07-27T00:53:27.544Z,72
2018-07-27T00:58:58.372Z,73
2018-07-27T01:04:28.662Z,73
2018-07-27T01:09:59.021Z,73
2018-07-27T01:15:33.852Z,73
2018-07-27T01:21:04.007Z,74
2018-07-27T01:26:28.692Z,74
2018-07-27T01:32:03.173Z,74
2018-07-27T01:37:28.165Z,74
2018-07-27T01:42:57.945Z,74
2018-07-27T01:48:33.602Z,74
2018-07-27T01:53:59.529Z,74
2018-07-27T01:59:34.058Z,75
2018-07-27T02:05:00.140Z,75
2018-07-27T02:10:34.913Z,75
2018-07-27T02:16:04.384Z,75
2018-07-27T02:21:30.420Z,76
2018-07-27T02:27:00.362Z,76
2018-07-27T02:32:35.625Z,76
2018-07-27T02:38:05.477Z,77
2018-07-27T02:43:30.460Z,77
2018-07-27T02:49:00.237Z,77
2018-07-27T02:54:34.612Z,77
2018-07-27T03:00:04.260Z,77
2018-07-27T03:05:28.969Z,77
2018-07-27T03:10:59.776Z,77
2018-07-27T03:16:34.469Z,77
2018-07-27T03:21:59.388Z,77
2018-07-27T03:27:29.881Z,77
2018-07-27T03:33:04.986Z,77
2018-07-27T03:38:30.375Z,77
2018-07-27T03:44:00.276Z,77
2018-07-27T03:49:31.201Z,77
2018-07-27T03:55:00.448Z,77
2018-07-27T04:00:30.261Z,77
2018-07-27T04:06:00.983Z,77
2018-07-27T04:11:31.697Z,77
2018-07-27T04:17:01.332Z,78
2018-07-27T04:22:37.228Z,77
2018-07-27T04:28:03.195Z,77
2018-07-27T04:33:32.267Z,77
2018-07-27T04:39:08.044Z,77
2018-07-27T04:44:38.733Z,77
2018-07-27T04:50:03.420Z,77
2018-07-27T04:55:34.354Z,77
2018-07-27T05:01:04.787Z,77
2018-07-27T05:06:34.575Z,77
2018-07-27T05:12:05.362Z,77
2018-07-27T05:17:34.989Z,77
2018-07-27T05:23:11.023Z,77
2018-07-27T05:28:40.544Z,77
2018-07-27T05:34:06.474Z,77
2018-07-27T05:39:35.954Z,77
2018-07-27T05:45:11.715Z,77
2018-07-27T05:50:42.768Z,77
2018-07-27T05:56:07.267Z,77
2018-07-27T06:01:37.048Z,77
2018-07-27T06:07:06.834Z,77
2018-07-27T06:12:36.905Z,77
2018-07-27T06:18:07.586Z,77
2018-07-27T06:23:37.369Z,77
2018-07-27T06:29:13.182Z,77
2018-07-27T06:34:43.023Z,77
2018-07-27T06:40:07.793Z,77
2018-07-27T06:45:37.656Z,77
2018-07-27T06:51:13.551Z,77
2018-07-27T06:56:38.419Z,77
2018-07-27T07:02:09.325Z,77
2018-07-27T07:07:45.665Z,77
2018-07-27T07:13:10.528Z,77
2018-07-27T07:18:46.290Z,76
2018-07-27T07:24:12.270Z,76
2018-07-27T07:29:42.191Z,76
2018-07-27T07:35:12.861Z,76
2018-07-27T07:40:49.352Z,76
2018-07-27T07:46:15.229Z,76
2018-07-27T07:51:46.233Z,76
2018-07-27T07:51:48.801Z,76
2018-07-27T07:57:15.905Z,75
2018-07-27T08:02:50.817Z,75
2018-07-27T08:08:15.861Z,75
2018-07-27T08:19:16.782Z,74
2018-07-27T08:24:47.835Z,74
2018-07-27T08:30:17.997Z,74
2018-07-27T08:35:53.898Z,73
2018-07-27T08:41:19.624Z,72
2018-07-27T08:41:24.000Z,72
2018-07-27T08:46:48.982Z,72
2018-07-27T08:52:24.056Z,71
2018-07-27T08:57:49.179Z,71
2018-07-27T09:03:20.503Z,71
2018-07-27T09:03:20.876Z,71
2018-07-27T09:08:55.358Z,70
2018-07-27T09:14:22.162Z,69
2018-07-27T09:19:51.556Z,69
2018-07-27T09:25:27.949Z,69
2018-07-27T09:30:57.943Z,68
2018-07-27T09:36:23.118Z,68
2018-07-27T09:41:59.246Z,68
2018-07-27T09:47:25.392Z,68
2018-07-27T09:52:56.431Z,68
2018-07-27T09:58:27.888Z,67
2018-07-27T10:03:57.861Z,67
2018-07-27T10:09:32.958Z,67
2018-07-27T10:14:59.209Z,67
2018-07-27T10:20:29.277Z,66
2018-07-27T10:25:59.722Z,66
2018-07-27T10:31:30.796Z,66
2018-07-27T10:37:06.210Z,66
2018-07-27T10:42:37.230Z,66
2018-07-27T10:48:03.415Z,66
2018-07-27T10:53:38.630Z,65
2018-07-27T10:59:03.853Z,65
2018-07-27T11:04:34.257Z,65
2018-07-27T11:10:04.666Z,65
2018-07-27T11:15:40.621Z,65
2018-07-27T11:21:06.895Z,65
2018-07-27T11:26:42.449Z,65
2018-07-27T11:32:08.495Z,65
2018-07-27T11:37:38.698Z,64
2018-07-27T11:43:14.255Z,64
2018-07-27T11:48:40.571Z,64
2018-07-27T11:54:16.643Z,64
2018-07-27T11:59:42.884Z,64
2018-07-27T12:05:13.252Z,64
2018-07-27T12:10:43.574Z,64
2018-07-27T12:16:14.269Z,64
2018-07-27T12:21:45.747Z,64
2018-07-27T12:27:15.934Z,64
2018-07-27T12:32:46.924Z,64
2018-07-27T12:38:17.856Z,63
2018-07-27T12:43:49.337Z,63
2018-07-27T12:49:17.934Z,63
2018-07-27T12:54:48.348Z,62
2018-07-27T13:00:19.588Z,62
2018-07-27T13:05:50.002Z,61
2018-07-27T13:11:21.593Z,61
2018-07-27T13:16:52.689Z,60
2018-07-27T13:22:28.355Z,60
2018-07-27T13:27:54.564Z,60
2018-07-27T13:33:29.915Z,60
2018-07-27T13:38:55.428Z,60
2018-07-27T13:44:26.763Z,59
2018-07-27T13:49:58.206Z,59
2018-07-27T13:55:29.716Z,59
2018-07-27T14:01:00.078Z,59
2018-07-27T14:06:35.489Z,59
2018-07-27T14:12:01.204Z,58
2018-07-27T14:17:32.299Z,58
2018-07-27T14:23:03.907Z,58
2018-07-27T14:28:34.316Z,58
2018-07-27T14:34:05.594Z,58
2018-07-27T14:39:36.531Z,58
2018-07-27T14:45:11.468Z,58
2018-07-27T14:50:36.885Z,58
2018-07-27T14:56:12.635Z,57
2018-07-27T15:01:38.739Z,57
2018-07-27T15:07:09.415Z,57
2018-07-27T15:12:39.845Z,57
2018-07-27T15:18:16.052Z,57
2018-07-27T15:23:41.752Z,57
2018-07-27T15:29:12.940Z,56
2018-07-27T15:34:43.477Z,56
2018-07-27T15:40:15.156Z,56
2018-07-27T15:45:46.649Z,56
2018-07-27T15:51:16.667Z,57
2018-07-27T15:56:48.123Z,56
2018-07-27T16:02:23.580Z,56
2018-07-27T16:07:48.998Z,56
2018-07-27T16:13:20.547Z,56
2018-07-27T16:18:54.995Z,56
2018-07-27T16:18:57.158Z,56
2018-07-27T16:24:23.339Z,56
2018-07-27T16:29:54.773Z,56
2018-07-27T16:35:25.614Z,56
2018-07-27T16:40:55.682Z,56
2018-07-27T16:46:32.183Z,56
2018-07-27T16:51:57.598Z,56
2018-07-27T16:57:28.119Z,56
2018-07-27T17:02:58.462Z,56
2018-07-27T17:08:29.929Z,55
2018-07-27T17:14:01.933Z,55
2018-07-27T17:19:31.677Z,55
2018-07-27T17:25:03.597Z,55
2018-07-27T17:30:39.749Z,55
2018-07-27T17:36:04.850Z,55
2018-07-27T17:41:35.415Z,55
2018-07-27T17:47:10.562Z,55
2018-07-27T17:52:36.075Z,56
2018-07-27T17:58:06.404Z,56
2018-07-27T18:03:37.419Z,56
2018-07-27T18:09:13.939Z,56
2018-07-27T18:14:43.934Z,57
2018-07-27T18:20:10.223Z,57
2018-07-27T18:25:41.911Z,57
2018-07-27T18:31:14.766Z,57
2018-07-27T18:36:49.609Z,58
2018-07-27T18:42:15.243Z,58
2018-07-27T18:47:50.404Z,59
2018-07-27T18:53:16.479Z,59
2018-07-27T18:58:46.761Z,59
2018-07-27T19:04:22.196Z,60
2018-07-27T19:09:47.034Z,60
2018-07-27T19:15:23.293Z,60
2018-07-27T19:20:48.334Z,61
2018-07-27T19:26:18.449Z,61
2018-07-27T19:31:49.591Z,61
2018-07-27T19:37:20.679Z,62
2018-07-27T19:42:50.991Z,62
2018-07-27T19:48:21.017Z,62
2018-07-27T19:53:51.245Z,62
2018-07-27T19:59:20.951Z,62
2018-07-27T20:04:52.040Z,62
2018-07-27T20:10:22.089Z,63
2018-07-27T20:15:53.052Z,63
2018-07-27T20:21:23.126Z,63
2018-07-27T20:26:54.454Z,64
2018-07-27T20:32:25.113Z,64
2018-07-27T20:37:55.116Z,64
2018-07-27T20:43:25.467Z,64
2018-07-27T20:48:55.175Z,65
2018-07-27T20:54:25.083Z,65
2018-07-27T21:00:00.086Z,65
2018-07-27T21:05:24.997Z,66
2018-07-27T21:11:00.011Z,66
2018-07-27T21:16:30.986Z,66
2018-07-27T21:21:55.985Z,66
2018-07-27T21:27:27.330Z,67
2018-07-27T21:32:57.805Z,67
2018-07-27T21:38:27.771Z,67
2018-07-27T21:43:59.026Z,67
2018-07-27T21:49:34.881Z,68
2018-07-27T21:55:05.466Z,68
2018-07-27T22:00:30.523Z,68
2018-07-27T22:06:01.513Z,69
2018-07-27T22:11:37.202Z,69
2018-07-27T22:17:03.375Z,69
2018-07-27T22:22:37.920Z,70
2018-07-27T22:28:02.751Z,70
2018-07-27T22:33:33.597Z,70
2018-07-27T22:39:03.738Z,71
2018-07-27T22:44:34.327Z,71
2018-07-27T22:50:05.431Z,71
2018-07-27T22:55:35.061Z,72
2018-07-27T23:01:04.936Z,72
2018-07-27T23:06:34.737Z,72
2018-07-27T23:12:05.571Z,72
2018-07-27T23:17:40.507Z,73
2018-07-27T23:23:06.207Z,73
2018-07-27T23:28:36.037Z,73
2018-07-27T23:34:05.861Z,73
2018-07-27T23:39:36.661Z,74
2018-07-27T23:45:06.775Z,74
2018-07-27T23:50:37.669Z,74
2018-07-27T23:56:08.098Z,74
